createdAt,value
2022-11-30T00:01:52.217Z,98.69
2022-11-30T00:04:20.838Z,98.31
2022-11-30T00:06:49.416Z,98.12
2022-11-30T00:09:17.949Z,98.17
2022-11-30T00:11:46.575Z,97.90
2022-11-30T00:14:15.245Z,97.69
2022-11-30T00:16:45.806Z,98.21
2022-11-30T00:19:14.427Z,98.16
2022-11-30T00:21:43.062Z,98.01
2022-11-30T00:24:11.725Z,97.77
2022-11-30T00:26:40.325Z,97.88
2022-11-30T00:29:08.920Z,98.07
2022-11-30T00:31:37.463Z,97.81
2022-11-30T00:34:08.049Z,97.12
2022-11-30T00:36:36.649Z,97.41
2022-11-30T00:39:05.830Z,98.15
2022-11-30T00:41:34.375Z,97.83
2022-11-30T00:44:02.964Z,97.91
2022-11-30T00:46:31.756Z,97.86
2022-11-30T00:49:00.466Z,97.72
2022-11-30T00:51:30.952Z,97.77
2022-11-30T00:53:59.600Z,97.65
2022-11-30T00:56:28.149Z,97.65
2022-11-30T00:58:56.760Z,98.10
2022-11-30T01:01:25.404Z,98.25
2022-11-30T01:03:54.238Z,97.32
2022-11-30T01:06:22.798Z,97.68
2022-11-30T01:08:53.338Z,97.88
2022-11-30T01:11:25.960Z,98.44
2022-11-30T01:13:56.558Z,98.02
2022-11-30T01:16:28.264Z,98.12
2022-11-30T01:18:57.953Z,97.73
2022-11-30T01:21:30.096Z,98.69
2022-11-30T01:24:00.660Z,98.75
2022-11-30T01:26:29.340Z,98.80
2022-11-30T01:28:58.180Z,98.34
2022-11-30T01:31:27.069Z,98.31
2022-11-30T01:33:57.119Z,98.64
2022-11-30T01:36:27.746Z,98.38
2022-11-30T01:38:59.990Z,98.78
2022-11-30T01:41:31.173Z,98.36
2022-11-30T01:44:30.839Z,98.01
2022-11-30T01:47:02.360Z,98.94
2022-11-30T01:49:35.750Z,98.94
2022-11-30T01:52:09.011Z,98.45
2022-11-30T01:54:46.843Z,98.65
2022-11-30T01:57:20.546Z,98.75
2022-11-30T01:59:50.880Z,98.75
2022-11-30T02:02:27.982Z,98.72
2022-11-30T02:04:56.879Z,98.72
2022-11-30T02:07:25.742Z,99.09
2022-11-30T02:09:56.293Z,98.97
2022-11-30T02:12:34.515Z,99.20
2022-11-30T02:15:10.730Z,98.46
2022-11-30T02:17:48.850Z,98.83
2022-11-30T02:20:57.488Z,98.70
2022-11-30T02:23:59.140Z,99.09
2022-11-30T02:27:04.342Z,98.72
2022-11-30T02:29:39.810Z,98.67
2022-11-30T02:32:13.698Z,98.45
2022-11-30T02:34:44.159Z,99.00
2022-11-30T02:37:15.564Z,98.51
2022-11-30T02:39:45.164Z,98.75
2022-11-30T02:42:14.933Z,98.66
2022-11-30T02:44:49.290Z,98.90
2022-11-30T02:47:27.085Z,98.54
2022-11-30T02:50:01.375Z,97.90
2022-11-30T02:52:32.916Z,98.43
2022-11-30T02:55:03.647Z,97.82
2022-11-30T02:57:32.377Z,97.20
2022-11-30T03:00:08.499Z,97.17
2022-11-30T03:02:37.147Z,96.68
2022-11-30T03:05:06.636Z,96.64
2022-11-30T03:07:35.622Z,96.37
2022-11-30T03:10:05.868Z,96.86
2022-11-30T03:12:34.578Z,96.24
2022-11-30T03:15:05.692Z,96.31
2022-11-30T03:17:34.466Z,96.84
2022-11-30T03:20:03.791Z,96.50
2022-11-30T03:22:32.446Z,97.18
2022-11-30T03:25:00.998Z,97.33
2022-11-30T03:27:29.533Z,97.52
2022-11-30T03:29:58.095Z,97.65
2022-11-30T03:32:30.362Z,98.16
2022-11-30T03:34:59.071Z,98.58
2022-11-30T03:37:27.721Z,98.63
2022-11-30T03:39:58.378Z,98.94
2022-11-30T03:42:27.260Z,98.75
2022-11-30T03:44:55.854Z,98.69
2022-11-30T03:47:24.446Z,98.87
2022-11-30T03:49:54.990Z,99.19
2022-11-30T03:52:23.569Z,99.77
2022-11-30T03:54:52.183Z,99.35
2022-11-30T03:57:20.933Z,99.32
2022-11-30T03:59:49.513Z,99.59
2022-11-30T04:02:18.084Z,99.97
2022-11-30T04:04:47.006Z,99.29
2022-11-30T04:07:17.816Z,99.59
2022-11-30T04:09:46.447Z,99.87
2022-11-30T04:12:15.067Z,99.58
2022-11-30T04:14:43.667Z,99.65
2022-11-30T04:17:12.291Z,99.66
2022-11-30T04:19:40.928Z,99.71
2022-11-30T04:22:09.537Z,99.77
2022-11-30T04:24:40.091Z,99.61
2022-11-30T04:27:08.685Z,99.46
2022-11-30T04:29:37.264Z,99.27
2022-11-30T04:32:06.017Z,98.92
2022-11-30T04:34:34.582Z,99.48
2022-11-30T04:37:03.209Z,99.35
2022-11-30T04:39:34.927Z,99.16
2022-11-30T04:42:06.032Z,99.21
2022-11-30T04:44:34.598Z,99.30
2022-11-30T04:47:03.156Z,99.13
2022-11-30T04:49:31.716Z,99.28
2022-11-30T04:52:00.282Z,99.64
2022-11-30T04:54:28.928Z,99.24
2022-11-30T04:56:57.522Z,98.96
2022-11-30T04:59:28.011Z,99.04
2022-11-30T05:01:56.755Z,99.05
2022-11-30T05:04:25.485Z,99.63
2022-11-30T05:06:54.109Z,99.09
2022-11-30T05:09:22.735Z,99.28
2022-11-30T05:11:51.299Z,99.47
2022-11-30T05:14:19.958Z,99.32
2022-11-30T05:16:51.603Z,99.85
2022-11-30T05:19:20.267Z,99.01
2022-11-30T05:21:48.915Z,99.35
2022-11-30T05:24:18.095Z,99.65
2022-11-30T05:26:46.737Z,99.53
2022-11-30T05:29:15.417Z,99.41
2022-11-30T05:31:44.063Z,98.97
2022-11-30T05:34:14.900Z,99.02
2022-11-30T05:36:43.514Z,99.48
2022-11-30T05:39:12.255Z,99.06
2022-11-30T05:41:40.915Z,99.72
2022-11-30T05:44:10.912Z,99.39
2022-11-30T05:46:41.076Z,99.90
2022-11-30T05:49:09.987Z,99.52
2022-11-30T05:51:42.111Z,99.24
2022-11-30T05:54:10.742Z,99.52
2022-11-30T05:56:39.341Z,99.62
2022-11-30T05:59:08.014Z,99.15
2022-11-30T06:01:36.677Z,98.67
2022-11-30T06:04:09.039Z,98.33
2022-11-30T06:06:37.677Z,98.31
2022-11-30T06:09:08.298Z,98.32
2022-11-30T06:11:39.982Z,98.48
2022-11-30T06:14:08.606Z,98.05
2022-11-30T06:16:40.626Z,97.77
2022-11-30T06:19:09.255Z,98.27
2022-11-30T06:21:37.857Z,97.39
2022-11-30T06:24:10.131Z,97.62
2022-11-30T06:26:39.152Z,97.71
2022-11-30T06:29:07.792Z,96.89
2022-11-30T06:31:36.452Z,97.35
2022-11-30T06:34:05.061Z,97.57
2022-11-30T06:36:36.232Z,97.17
2022-11-30T06:39:06.151Z,97.86
2022-11-30T06:41:36.736Z,97.65
2022-11-30T06:44:10.052Z,98.39
2022-11-30T06:46:38.683Z,98.16
2022-11-30T06:49:07.563Z,98.29
2022-11-30T06:51:36.833Z,98.88
2022-11-30T06:54:05.903Z,98.82
2022-11-30T06:56:36.566Z,99.10
2022-11-30T06:59:05.294Z,99.69
2022-11-30T07:01:34.040Z,99.44
2022-11-30T07:04:02.668Z,99.45
2022-11-30T07:06:31.357Z,99.25
2022-11-30T07:08:59.925Z,99.30
2022-11-30T07:11:28.540Z,100.00
2022-11-30T07:13:59.095Z,99.75
2022-11-30T07:16:27.805Z,99.80
2022-11-30T07:18:56.434Z,99.56
2022-11-30T07:21:25.405Z,100.00
2022-11-30T07:24:07.106Z,100.00
2022-11-30T07:26:40.852Z,99.65
2022-11-30T07:29:13.808Z,99.64
2022-11-30T07:31:42.521Z,99.99
2022-11-30T07:34:12.741Z,100.00
2022-11-30T07:36:41.312Z,99.93
2022-11-30T07:39:11.151Z,99.62
2022-11-30T07:41:43.917Z,99.81
2022-11-30T07:44:14.723Z,100.00
2022-11-30T07:46:43.681Z,100.00
2022-11-30T07:49:12.852Z,100.00
2022-11-30T07:51:41.615Z,99.77
2022-11-30T07:54:10.284Z,99.80
2022-11-30T07:56:38.908Z,99.72
2022-11-30T07:59:07.547Z,99.70
2022-11-30T08:01:38.304Z,100.00
2022-11-30T08:04:07.368Z,99.68
2022-11-30T08:06:36.078Z,100.00
2022-11-30T08:09:06.609Z,99.99
2022-11-30T08:11:37.351Z,99.60
2022-11-30T08:14:06.665Z,100.00
2022-11-30T08:16:39.486Z,100.00
2022-11-30T08:19:08.426Z,99.80
2022-11-30T08:21:37.488Z,100.00
2022-11-30T08:24:07.089Z,100.00
2022-11-30T08:26:36.183Z,100.00
2022-11-30T08:29:04.912Z,100.00
2022-11-30T08:31:35.669Z,100.00
2022-11-30T08:34:09.292Z,100.00
2022-11-30T08:36:38.067Z,100.00
2022-11-30T08:39:08.630Z,100.00
2022-11-30T08:41:38.633Z,100.00
2022-11-30T08:44:07.969Z,100.00
2022-11-30T08:46:53.452Z,100.00
2022-11-30T08:49:25.406Z,100.00
2022-11-30T08:54:47.609Z,100.00
2022-11-30T08:57:17.734Z,100.00
2022-11-30T08:59:46.547Z,100.00
2022-11-30T09:02:19.035Z,100.00
2022-11-30T09:04:51.315Z,100.00
2022-11-30T09:07:20.124Z,100.00
2022-11-30T09:09:49.134Z,100.00
2022-11-30T09:12:17.791Z,100.00
2022-11-30T09:14:50.794Z,100.00
2022-11-30T09:17:22.785Z,100.00
2022-11-30T09:19:54.090Z,100.00
2022-11-30T09:22:22.819Z,100.00
2022-11-30T09:24:51.528Z,100.00
2022-11-30T09:27:20.283Z,100.00
2022-11-30T09:29:48.900Z,100.00
2022-11-30T09:32:17.515Z,100.00
2022-11-30T09:34:46.461Z,100.00
2022-11-30T09:37:17.194Z,100.00
2022-11-30T09:39:45.796Z,100.00
2022-11-30T09:42:44.866Z,100.00
2022-11-30T09:45:20.607Z,100.00
2022-11-30T09:48:09.943Z,100.00
2022-11-30T09:50:44.455Z,100.00
2022-11-30T09:53:28.954Z,100.00
2022-11-30T09:56:00.295Z,100.00
2022-11-30T09:58:40.167Z,100.00
2022-11-30T10:01:19.163Z,100.00
2022-11-30T10:03:48.605Z,100.00
2022-11-30T10:06:27.723Z,100.00
2022-11-30T10:09:31.917Z,100.00
2022-11-30T10:12:07.619Z,100.00
2022-11-30T10:15:07.035Z,100.00
2022-11-30T10:17:47.355Z,100.00
2022-11-30T10:20:39.180Z,100.00
2022-11-30T10:23:27.288Z,100.00
2022-11-30T10:26:01.668Z,100.00
2022-11-30T10:28:47.590Z,100.00
2022-11-30T10:31:18.023Z,100.00
2022-11-30T10:33:50.512Z,100.00
2022-11-30T10:36:45.783Z,100.00
2022-11-30T10:39:22.164Z,100.00
2022-11-30T10:41:57.026Z,100.00
2022-11-30T10:44:30.059Z,99.65
2022-11-30T10:47:04.580Z,99.71
2022-11-30T10:49:34.532Z,99.61
2022-11-30T10:52:08.217Z,99.22
2022-11-30T10:54:38.419Z,98.99
2022-11-30T10:57:09.393Z,99.21
2022-11-30T10:59:45.951Z,98.29
2022-11-30T11:02:42.354Z,98.37
2022-11-30T11:05:21.164Z,98.17
2022-11-30T11:07:57.835Z,97.64
2022-11-30T11:10:35.861Z,96.43
2022-11-30T11:13:07.354Z,96.38
2022-11-30T11:15:36.810Z,96.65
2022-11-30T11:18:26.087Z,96.17
2022-11-30T11:21:07.627Z,96.73
2022-11-30T11:23:39.592Z,96.42
2022-11-30T11:26:17.183Z,95.89
2022-11-30T11:28:51.061Z,96.18
2022-11-30T11:31:35.045Z,95.47
2022-11-30T11:34:04.103Z,95.90
2022-11-30T11:36:36.188Z,95.81
2022-11-30T11:39:25.562Z,95.09
2022-11-30T11:41:54.564Z,95.55
2022-11-30T11:44:27.639Z,95.36
2022-11-30T11:46:59.373Z,94.53
2022-11-30T11:49:30.416Z,94.48
2022-11-30T11:52:04.086Z,93.32
2022-11-30T11:54:38.216Z,91.75
2022-11-30T11:57:13.208Z,90.31
2022-11-30T11:59:53.559Z,88.58
2022-11-30T12:02:36.249Z,88.61
2022-11-30T12:05:12.255Z,88.72
2022-11-30T12:07:47.733Z,87.82
2022-11-30T12:13:22.875Z,87.19
2022-11-30T12:16:08.310Z,87.67
2022-11-30T12:18:51.267Z,87.51
2022-11-30T12:21:33.241Z,87.82
2022-11-30T12:24:35.410Z,87.82
2022-11-30T12:27:17.964Z,88.41
2022-11-30T12:30:00.185Z,87.84
2022-11-30T12:32:51.165Z,87.66
2022-11-30T12:35:36.506Z,87.72
2022-11-30T12:38:20.760Z,87.76
2022-11-30T12:40:58.153Z,87.78
2022-11-30T12:43:40.765Z,86.72
2022-11-30T12:46:21.370Z,87.47
2022-11-30T12:49:09.978Z,87.12
2022-11-30T12:51:45.282Z,87.71
2022-11-30T12:54:22.984Z,88.35
2022-11-30T12:56:58.351Z,88.44
2022-11-30T12:59:39.198Z,88.44
2022-11-30T13:02:37.688Z,87.71
2022-11-30T13:05:12.364Z,88.30
2022-11-30T13:07:46.087Z,87.70
2022-11-30T13:10:26.687Z,88.02
2022-11-30T13:12:57.579Z,88.18
2022-11-30T13:15:30.720Z,88.22
2022-11-30T13:18:01.166Z,88.27
2022-11-30T13:20:39.935Z,88.38
2022-11-30T13:23:15.540Z,87.96
2022-11-30T13:26:08.420Z,88.15
2022-11-30T13:29:00.962Z,88.18
2022-11-30T13:31:37.087Z,88.27
2022-11-30T13:34:05.752Z,88.36
2022-11-30T13:36:40.098Z,88.14
2022-11-30T13:39:24.994Z,88.52
2022-11-30T13:42:37.370Z,88.35
2022-11-30T13:45:38.098Z,88.37
2022-11-30T13:48:33.147Z,88.19
2022-11-30T13:51:02.250Z,88.30
2022-11-30T13:53:35.276Z,89.06
2022-11-30T13:56:23.899Z,89.33
2022-11-30T13:59:35.633Z,89.45
2022-11-30T14:04:45.477Z,90.19
2022-11-30T14:07:36.763Z,90.37
2022-11-30T14:10:26.534Z,89.92
2022-11-30T14:13:05.385Z,89.46
2022-11-30T14:15:57.580Z,89.31
2022-11-30T14:18:46.195Z,89.93
2022-11-30T14:21:24.534Z,89.43
2022-11-30T14:24:00.370Z,89.26
2022-11-30T14:26:37.466Z,89.20
2022-11-30T14:29:20.039Z,89.60
2022-11-30T14:31:57.723Z,89.24
2022-11-30T14:34:31.881Z,89.62
2022-11-30T14:37:04.672Z,89.47
2022-11-30T14:39:36.868Z,89.73
2022-11-30T14:42:23.375Z,90.06
2022-11-30T14:44:55.225Z,89.46
2022-11-30T14:47:25.770Z,89.88
2022-11-30T14:49:56.525Z,89.59
2022-11-30T14:52:50.184Z,89.21
2022-11-30T14:55:32.497Z,89.77
2022-11-30T14:58:16.422Z,89.36
2022-11-30T15:00:48.541Z,89.22
2022-11-30T15:03:26.284Z,89.93
2022-11-30T15:05:58.382Z,90.22
2022-11-30T15:08:36.400Z,89.87
2022-11-30T15:11:08.295Z,90.15
2022-11-30T15:13:40.818Z,90.46
2022-11-30T15:16:22.038Z,90.35
2022-11-30T15:18:51.793Z,90.06
2022-11-30T15:21:23.822Z,89.63
2022-11-30T15:23:53.882Z,90.04
2022-11-30T15:26:28.550Z,89.48
2022-11-30T15:29:01.547Z,89.91
2022-11-30T15:31:38.278Z,90.32
2022-11-30T15:34:08.570Z,90.28
2022-11-30T15:36:38.947Z,90.17
2022-11-30T15:39:16.291Z,90.61
2022-11-30T15:41:45.002Z,90.38
2022-11-30T15:44:26.716Z,90.28
2022-11-30T15:47:02.564Z,90.30
2022-11-30T15:49:33.485Z,89.87
2022-11-30T15:52:08.428Z,90.48
2022-11-30T15:54:52.063Z,89.71
2022-11-30T15:57:22.304Z,90.36
2022-11-30T16:00:10.881Z,90.55
2022-11-30T16:02:41.550Z,91.14
2022-11-30T16:05:27.637Z,90.58
2022-11-30T16:07:59.355Z,90.50
2022-11-30T16:10:34.214Z,91.39
2022-11-30T16:13:03.643Z,91.78
2022-11-30T16:15:35.450Z,91.59
2022-11-30T16:18:20.826Z,91.47
2022-11-30T16:20:53.522Z,92.15
2022-11-30T16:26:03.190Z,91.83
2022-11-30T16:28:39.907Z,91.47
2022-11-30T16:31:15.399Z,92.08
2022-11-30T16:33:44.492Z,91.21
2022-11-30T16:36:18.190Z,91.19
2022-11-30T16:38:50.029Z,91.90
2022-11-30T16:41:22.606Z,91.97
2022-11-30T16:43:53.422Z,91.93
2022-11-30T16:46:25.204Z,92.02
2022-11-30T16:48:54.446Z,91.91
2022-11-30T16:51:26.664Z,91.85
2022-11-30T16:53:55.847Z,91.79
2022-11-30T16:56:26.841Z,92.05
2022-11-30T16:58:55.699Z,91.89
2022-11-30T17:01:34.534Z,91.45
2022-11-30T17:04:14.049Z,91.99
2022-11-30T17:06:44.010Z,91.97
2022-11-30T17:09:17.595Z,92.08
2022-11-30T17:11:49.774Z,92.69
2022-11-30T17:14:19.283Z,91.99
2022-11-30T17:16:48.209Z,91.73
